sensor_id;sensor_type;location;lat;lon;timestamp;P1;durP1;ratioP1;P2;durP2;ratioP2
62861;SDS011;48953;53.110;5.592;2023-12-29T00:01:48;36.05;;;4.45;;
62861;SDS011;48953;53.110;5.592;2023-12-29T00:04:14;18.73;;;3.42;;
62861;SDS011;48953;53.110;5.592;2023-12-29T00:06:40;25.40;;;3.20;;
62861;SDS011;48953;53.110;5.592;2023-12-29T00:09:06;20.23;;;3.38;;
62861;SDS011;48953;53.110;5.592;2023-12-29T00:11:32;25.27;;;3.33;;
62861;SDS011;48953;53.110;5.592;2023-12-29T00:13:59;19.60;;;3.40;;
62861;SDS011;48953;53.110;5.592;2023-12-29T00:16:27;21.90;;;3.28;;
62861;SDS011;48953;53.110;5.592;2023-12-29T00:18:53;23.15;;;3.58;;
62861;SDS011;48953;53.110;5.592;2023-12-29T00:21:19;18.42;;;2.58;;
62861;SDS011;48953;53.110;5.592;2023-12-29T00:23:46;22.05;;;2.80;;
62861;SDS011;48953;53.110;5.592;2023-12-29T00:26:12;18.67;;;3.00;;
62861;SDS011;48953;53.110;5.592;2023-12-29T00:28:38;23.35;;;3.45;;
62861;SDS011;48953;53.110;5.592;2023-12-29T00:31:08;25.92;;;3.45;;
62861;SDS011;48953;53.110;5.592;2023-12-29T00:33:34;21.02;;;3.65;;
62861;SDS011;48953;53.110;5.592;2023-12-29T00:36:00;22.50;;;3.50;;
62861;SDS011;48953;53.110;5.592;2023-12-29T00:38:26;24.42;;;3.92;;
62861;SDS011;48953;53.110;5.592;2023-12-29T00:40:55;22.17;;;3.03;;
62861;SDS011;48953;53.110;5.592;2023-12-29T00:43:22;19.75;;;2.47;;
62861;SDS011;48953;53.110;5.592;2023-12-29T00:45:48;24.58;;;2.85;;
62861;SDS011;48953;53.110;5.592;2023-12-29T00:48:14;21.60;;;2.47;;
62861;SDS011;48953;53.110;5.592;2023-12-29T00:50:40;22.13;;;3.03;;
62861;SDS011;48953;53.110;5.592;2023-12-29T00:53:06;25.05;;;3.05;;
62861;SDS011;48953;53.110;5.592;2023-12-29T00:55:32;21.52;;;2.88;;
62861;SDS011;48953;53.110;5.592;2023-12-29T00:57:58;17.45;;;2.78;;
62861;SDS011;48953;53.110;5.592;2023-12-29T01:00:24;19.23;;;2.75;;
62861;SDS011;48953;53.110;5.592;2023-12-29T01:02:50;21.08;;;2.45;;
62861;SDS011;48953;53.110;5.592;2023-12-29T01:05:16;20.17;;;2.55;;
62861;SDS011;48953;53.110;5.592;2023-12-29T01:07:42;18.23;;;2.78;;
62861;SDS011;48953;53.110;5.592;2023-12-29T01:10:09;23.92;;;2.55;;
62861;SDS011;48953;53.110;5.592;2023-12-29T01:12:35;18.00;;;3.05;;
62861;SDS011;48953;53.110;5.592;2023-12-29T01:15:01;32.78;;;4.38;;
62861;SDS011;48953;53.110;5.592;2023-12-29T01:17:27;28.73;;;3.58;;
62861;SDS011;48953;53.110;5.592;2023-12-29T01:19:56;28.55;;;3.78;;
62861;SDS011;48953;53.110;5.592;2023-12-29T01:22:22;23.90;;;2.70;;
62861;SDS011;48953;53.110;5.592;2023-12-29T01:24:48;23.98;;;2.92;;
62861;SDS011;48953;53.110;5.592;2023-12-29T01:27:14;21.60;;;2.67;;
62861;SDS011;48953;53.110;5.592;2023-12-29T01:29:40;21.98;;;2.88;;
62861;SDS011;48953;53.110;5.592;2023-12-29T01:32:06;17.58;;;3.08;;
62861;SDS011;48953;53.110;5.592;2023-12-29T01:34:33;15.63;;;1.98;;
62861;SDS011;48953;53.110;5.592;2023-12-29T01:36:59;16.80;;;2.58;;
62861;SDS011;48953;53.110;5.592;2023-12-29T01:39:25;14.60;;;2.17;;
62861;SDS011;48953;53.110;5.592;2023-12-29T01:41:51;14.15;;;2.20;;
62861;SDS011;48953;53.110;5.592;2023-12-29T01:44:18;14.85;;;2.72;;
62861;SDS011;48953;53.110;5.592;2023-12-29T01:46:45;8.45;;;1.90;;
62861;SDS011;48953;53.110;5.592;2023-12-29T01:49:13;11.40;;;2.50;;
62861;SDS011;48953;53.110;5.592;2023-12-29T01:51:39;14.30;;;1.90;;
62861;SDS011;48953;53.110;5.592;2023-12-29T01:54:06;9.75;;;2.65;;
62861;SDS011;48953;53.110;5.592;2023-12-29T01:56:32;17.58;;;2.50;;
62861;SDS011;48953;53.110;5.592;2023-12-29T01:58:58;15.65;;;2.92;;
62861;SDS011;48953;53.110;5.592;2023-12-29T02:01:24;19.48;;;2.55;;
62861;SDS011;48953;53.110;5.592;2023-12-29T02:03:51;16.90;;;2.42;;
62861;SDS011;48953;53.110;5.592;2023-12-29T02:06:17;22.33;;;3.15;;
62861;SDS011;48953;53.110;5.592;2023-12-29T02:08:43;16.65;;;2.20;;
62861;SDS011;48953;53.110;5.592;2023-12-29T02:11:10;19.63;;;2.65;;
62861;SDS011;48953;53.110;5.592;2023-12-29T02:13:36;15.93;;;3.00;;
62861;SDS011;48953;53.110;5.592;2023-12-29T02:16:05;15.25;;;2.75;;
62861;SDS011;48953;53.110;5.592;2023-12-29T02:18:33;17.38;;;2.65;;
62861;SDS011;48953;53.110;5.592;2023-12-29T02:21:00;17.17;;;2.58;;
62861;SDS011;48953;53.110;5.592;2023-12-29T02:23:28;21.77;;;3.10;;
62861;SDS011;48953;53.110;5.592;2023-12-29T02:25:55;23.33;;;3.97;;
62861;SDS011;48953;53.110;5.592;2023-12-29T02:28:25;29.25;;;4.50;;
62861;SDS011;48953;53.110;5.592;2023-12-29T02:31:10;25.88;;;4.00;;
62861;SDS011;48953;53.110;5.592;2023-12-29T02:33:40;27.63;;;5.20;;
62861;SDS011;48953;53.110;5.592;2023-12-29T02:36:06;31.05;;;4.90;;
62861;SDS011;48953;53.110;5.592;2023-12-29T02:38:33;21.80;;;4.03;;
62861;SDS011;48953;53.110;5.592;2023-12-29T02:40:59;26.02;;;4.15;;
62861;SDS011;48953;53.110;5.592;2023-12-29T02:43:25;27.73;;;4.50;;
62861;SDS011;48953;53.110;5.592;2023-12-29T02:45:51;27.27;;;3.65;;
62861;SDS011;48953;53.110;5.592;2023-12-29T02:48:17;23.02;;;3.92;;
62861;SDS011;48953;53.110;5.592;2023-12-29T02:50:43;29.80;;;3.60;;
62861;SDS011;48953;53.110;5.592;2023-12-29T02:53:09;28.40;;;4.20;;
62861;SDS011;48953;53.110;5.592;2023-12-29T02:55:36;22.02;;;3.35;;
62861;SDS011;48953;53.110;5.592;2023-12-29T02:58:02;28.58;;;3.83;;
62861;SDS011;48953;53.110;5.592;2023-12-29T03:00:28;28.75;;;4.22;;
62861;SDS011;48953;53.110;5.592;2023-12-29T03:02:54;33.40;;;4.10;;
62861;SDS011;48953;53.110;5.592;2023-12-29T03:05:20;27.90;;;3.75;;
62861;SDS011;48953;53.110;5.592;2023-12-29T03:07:46;29.50;;;4.18;;
62861;SDS011;48953;53.110;5.592;2023-12-29T03:10:12;27.05;;;3.67;;
62861;SDS011;48953;53.110;5.592;2023-12-29T03:12:39;22.88;;;3.83;;
62861;SDS011;48953;53.110;5.592;2023-12-29T03:15:05;25.60;;;2.75;;
62861;SDS011;48953;53.110;5.592;2023-12-29T03:17:31;20.75;;;3.17;;
62861;SDS011;48953;53.110;5.592;2023-12-29T03:19:57;22.83;;;3.08;;
62861;SDS011;48953;53.110;5.592;2023-12-29T03:22:23;17.52;;;2.90;;
62861;SDS011;48953;53.110;5.592;2023-12-29T03:24:49;18.30;;;3.13;;
62861;SDS011;48953;53.110;5.592;2023-12-29T03:27:16;17.98;;;2.53;;
62861;SDS011;48953;53.110;5.592;2023-12-29T03:29:42;20.27;;;3.47;;
62861;SDS011;48953;53.110;5.592;2023-12-29T03:32:08;22.77;;;3.58;;
62861;SDS011;48953;53.110;5.592;2023-12-29T03:34:34;21.05;;;2.88;;
62861;SDS011;48953;53.110;5.592;2023-12-29T03:37:00;17.92;;;2.80;;
62861;SDS011;48953;53.110;5.592;2023-12-29T03:39:26;22.15;;;3.08;;
62861;SDS011;48953;53.110;5.592;2023-12-29T03:41:52;15.98;;;2.88;;
62861;SDS011;48953;53.110;5.592;2023-12-29T03:44:18;21.77;;;3.80;;
62861;SDS011;48953;53.110;5.592;2023-12-29T03:46:44;17.60;;;2.58;;
62861;SDS011;48953;53.110;5.592;2023-12-29T03:49:10;20.10;;;2.75;;
62861;SDS011;48953;53.110;5.592;2023-12-29T03:51:36;20.67;;;3.22;;
62861;SDS011;48953;53.110;5.592;2023-12-29T03:54:02;17.80;;;3.30;;
62861;SDS011;48953;53.110;5.592;2023-12-29T03:56:28;20.40;;;3.40;;
62861;SDS011;48953;53.110;5.592;2023-12-29T03:58:54;21.10;;;3.05;;
62861;SDS011;48953;53.110;5.592;2023-12-29T04:01:20;15.18;;;2.60;;
62861;SDS011;48953;53.110;5.592;2023-12-29T04:03:46;28.73;;;3.83;;
62861;SDS011;48953;53.110;5.592;2023-12-29T04:06:12;20.80;;;3.22;;
62861;SDS011;48953;53.110;5.592;2023-12-29T04:08:38;22.70;;;2.90;;
62861;SDS011;48953;53.110;5.592;2023-12-29T04:11:04;17.65;;;2.85;;
62861;SDS011;48953;53.110;5.592;2023-12-29T04:13:31;20.17;;;4.32;;
62861;SDS011;48953;53.110;5.592;2023-12-29T04:15:57;14.50;;;2.60;;
62861;SDS011;48953;53.110;5.592;2023-12-29T04:18:23;24.30;;;3.97;;
62861;SDS011;48953;53.110;5.592;2023-12-29T04:20:49;22.15;;;2.70;;
62861;SDS011;48953;53.110;5.592;2023-12-29T04:23:16;21.95;;;3.00;;
62861;SDS011;48953;53.110;5.592;2023-12-29T04:25:42;21.75;;;3.42;;
62861;SDS011;48953;53.110;5.592;2023-12-29T04:28:08;19.20;;;3.25;;
62861;SDS011;48953;53.110;5.592;2023-12-29T04:30:34;24.85;;;3.30;;
62861;SDS011;48953;53.110;5.592;2023-12-29T04:33:00;18.85;;;2.80;;
62861;SDS011;48953;53.110;5.592;2023-12-29T04:35:26;14.18;;;2.58;;
62861;SDS011;48953;53.110;5.592;2023-12-29T04:37:52;19.33;;;2.83;;
62861;SDS011;48953;53.110;5.592;2023-12-29T04:40:18;22.92;;;3.85;;
62861;SDS011;48953;53.110;5.592;2023-12-29T04:42:44;21.35;;;2.92;;
62861;SDS011;48953;53.110;5.592;2023-12-29T04:45:10;20.20;;;3.50;;
62861;SDS011;48953;53.110;5.592;2023-12-29T04:47:37;21.40;;;3.25;;
62861;SDS011;48953;53.110;5.592;2023-12-29T04:50:03;16.25;;;2.60;;
62861;SDS011;48953;53.110;5.592;2023-12-29T04:52:30;17.65;;;3.30;;
62861;SDS011;48953;53.110;5.592;2023-12-29T04:54:56;21.55;;;3.55;;
62861;SDS011;48953;53.110;5.592;2023-12-29T04:57:22;20.05;;;3.67;;
62861;SDS011;48953;53.110;5.592;2023-12-29T04:59:48;20.42;;;2.95;;
62861;SDS011;48953;53.110;5.592;2023-12-29T05:02:14;19.13;;;3.10;;
62861;SDS011;48953;53.110;5.592;2023-12-29T05:04:40;19.45;;;3.30;;
62861;SDS011;48953;53.110;5.592;2023-12-29T05:07:08;17.73;;;2.92;;
62861;SDS011;48953;53.110;5.592;2023-12-29T05:09:34;29.67;;;4.93;;
62861;SDS011;48953;53.110;5.592;2023-12-29T05:12:00;22.98;;;3.05;;
62861;SDS011;48953;53.110;5.592;2023-12-29T05:14:26;24.75;;;3.63;;
62861;SDS011;48953;53.110;5.592;2023-12-29T05:16:52;20.15;;;3.50;;
62861;SDS011;48953;53.110;5.592;2023-12-29T05:19:19;24.08;;;3.15;;
62861;SDS011;48953;53.110;5.592;2023-12-29T05:21:45;27.95;;;3.05;;
62861;SDS011;48953;53.110;5.592;2023-12-29T05:24:11;28.67;;;4.03;;
62861;SDS011;48953;53.110;5.592;2023-12-29T05:26:37;32.72;;;3.38;;
62861;SDS011;48953;53.110;5.592;2023-12-29T05:29:03;22.80;;;3.30;;
62861;SDS011;48953;53.110;5.592;2023-12-29T05:31:29;20.50;;;2.95;;
62861;SDS011;48953;53.110;5.592;2023-12-29T05:33:55;18.83;;;3.15;;
62861;SDS011;48953;53.110;5.592;2023-12-29T05:36:21;23.73;;;4.32;;
62861;SDS011;48953;53.110;5.592;2023-12-29T05:38:47;21.40;;;3.85;;
62861;SDS011;48953;53.110;5.592;2023-12-29T05:41:13;23.70;;;3.78;;
62861;SDS011;48953;53.110;5.592;2023-12-29T05:43:39;26.27;;;3.22;;
62861;SDS011;48953;53.110;5.592;2023-12-29T05:46:09;25.92;;;3.20;;
62861;SDS011;48953;53.110;5.592;2023-12-29T05:48:38;22.70;;;3.08;;
62861;SDS011;48953;53.110;5.592;2023-12-29T05:51:08;19.08;;;3.30;;
62861;SDS011;48953;53.110;5.592;2023-12-29T05:53:34;23.90;;;3.90;;
62861;SDS011;48953;53.110;5.592;2023-12-29T05:56:00;18.85;;;2.67;;
62861;SDS011;48953;53.110;5.592;2023-12-29T05:58:26;22.35;;;3.40;;
62861;SDS011;48953;53.110;5.592;2023-12-29T06:00:54;23.30;;;3.47;;
62861;SDS011;48953;53.110;5.592;2023-12-29T06:03:20;25.48;;;2.85;;
62861;SDS011;48953;53.110;5.592;2023-12-29T06:05:47;25.48;;;3.42;;
62861;SDS011;48953;53.110;5.592;2023-12-29T06:08:13;24.73;;;2.92;;
62861;SDS011;48953;53.110;5.592;2023-12-29T06:10:39;26.38;;;3.55;;
62861;SDS011;48953;53.110;5.592;2023-12-29T06:13:05;20.67;;;3.08;;
62861;SDS011;48953;53.110;5.592;2023-12-29T06:15:31;24.23;;;3.20;;
62861;SDS011;48953;53.110;5.592;2023-12-29T06:17:57;21.45;;;4.07;;
62861;SDS011;48953;53.110;5.592;2023-12-29T06:20:23;18.58;;;2.75;;
62861;SDS011;48953;53.110;5.592;2023-12-29T06:22:50;23.88;;;3.13;;
62861;SDS011;48953;53.110;5.592;2023-12-29T06:25:16;22.30;;;3.38;;
62861;SDS011;48953;53.110;5.592;2023-12-29T06:27:42;23.25;;;3.47;;
62861;SDS011;48953;53.110;5.592;2023-12-29T06:30:08;23.25;;;3.60;;
62861;SDS011;48953;53.110;5.592;2023-12-29T06:32:36;21.45;;;3.05;;
62861;SDS011;48953;53.110;5.592;2023-12-29T06:35:02;19.80;;;3.38;;
62861;SDS011;48953;53.110;5.592;2023-12-29T06:37:28;26.65;;;3.53;;
62861;SDS011;48953;53.110;5.592;2023-12-29T06:39:54;24.23;;;3.40;;
62861;SDS011;48953;53.110;5.592;2023-12-29T06:42:20;23.55;;;3.25;;
62861;SDS011;48953;53.110;5.592;2023-12-29T06:44:47;22.50;;;3.08;;
62861;SDS011;48953;53.110;5.592;2023-12-29T06:47:13;19.85;;;3.38;;
62861;SDS011;48953;53.110;5.592;2023-12-29T06:49:39;23.45;;;4.05;;
62861;SDS011;48953;53.110;5.592;2023-12-29T06:52:06;28.33;;;4.25;;
62861;SDS011;48953;53.110;5.592;2023-12-29T06:54:33;33.05;;;4.15;;
62861;SDS011;48953;53.110;5.592;2023-12-29T06:56:59;28.60;;;3.88;;
62861;SDS011;48953;53.110;5.592;2023-12-29T06:59:25;24.38;;;4.18;;
62861;SDS011;48953;53.110;5.592;2023-12-29T07:01:51;25.38;;;3.38;;
62861;SDS011;48953;53.110;5.592;2023-12-29T07:04:17;20.70;;;3.38;;
62861;SDS011;48953;53.110;5.592;2023-12-29T07:06:43;25.88;;;3.50;;
62861;SDS011;48953;53.110;5.592;2023-12-29T07:09:09;22.27;;;3.85;;
62861;SDS011;48953;53.110;5.592;2023-12-29T07:11:35;18.45;;;3.97;;
62861;SDS011;48953;53.110;5.592;2023-12-29T07:14:02;18.95;;;3.90;;
62861;SDS011;48953;53.110;5.592;2023-12-29T07:16:28;17.45;;;3.30;;
62861;SDS011;48953;53.110;5.592;2023-12-29T07:18:54;21.90;;;3.45;;
62861;SDS011;48953;53.110;5.592;2023-12-29T07:21:20;23.67;;;3.15;;
62861;SDS011;48953;53.110;5.592;2023-12-29T07:23:46;15.55;;;3.50;;
62861;SDS011;48953;53.110;5.592;2023-12-29T07:26:12;26.95;;;3.30;;
62861;SDS011;48953;53.110;5.592;2023-12-29T07:28:38;24.80;;;3.28;;
62861;SDS011;48953;53.110;5.592;2023-12-29T07:31:04;23.50;;;3.42;;
62861;SDS011;48953;53.110;5.592;2023-12-29T07:33:30;19.67;;;2.95;;
62861;SDS011;48953;53.110;5.592;2023-12-29T07:35:57;26.73;;;3.88;;
62861;SDS011;48953;53.110;5.592;2023-12-29T07:38:23;22.15;;;3.85;;
62861;SDS011;48953;53.110;5.592;2023-12-29T07:40:49;24.40;;;5.03;;
62861;SDS011;48953;53.110;5.592;2023-12-29T07:43:15;21.15;;;2.70;;
62861;SDS011;48953;53.110;5.592;2023-12-29T07:45:41;19.55;;;2.53;;
62861;SDS011;48953;53.110;5.592;2023-12-29T07:48:10;20.92;;;2.70;;
62861;SDS011;48953;53.110;5.592;2023-12-29T07:50:36;22.55;;;3.30;;
62861;SDS011;48953;53.110;5.592;2023-12-29T07:53:03;18.63;;;2.88;;
62861;SDS011;48953;53.110;5.592;2023-12-29T07:55:30;20.02;;;2.70;;
62861;SDS011;48953;53.110;5.592;2023-12-29T07:57:56;21.70;;;3.53;;
62861;SDS011;48953;53.110;5.592;2023-12-29T08:00:22;19.38;;;2.95;;
62861;SDS011;48953;53.110;5.592;2023-12-29T08:02:49;24.30;;;3.47;;
62861;SDS011;48953;53.110;5.592;2023-12-29T08:05:16;23.67;;;2.97;;
62861;SDS011;48953;53.110;5.592;2023-12-29T08:07:42;18.13;;;2.78;;
62861;SDS011;48953;53.110;5.592;2023-12-29T08:10:08;16.40;;;3.10;;
62861;SDS011;48953;53.110;5.592;2023-12-29T08:12:35;14.65;;;2.70;;
62861;SDS011;48953;53.110;5.592;2023-12-29T08:15:01;19.75;;;2.45;;
62861;SDS011;48953;53.110;5.592;2023-12-29T08:17:27;21.35;;;3.17;;
62861;SDS011;48953;53.110;5.592;2023-12-29T08:19:54;12.95;;;2.47;;
62861;SDS011;48953;53.110;5.592;2023-12-29T08:22:20;18.00;;;3.05;;
62861;SDS011;48953;53.110;5.592;2023-12-29T08:24:47;19.45;;;2.58;;
62861;SDS011;48953;53.110;5.592;2023-12-29T08:27:13;21.52;;;2.78;;
62861;SDS011;48953;53.110;5.592;2023-12-29T08:29:39;13.98;;;2.10;;
62861;SDS011;48953;53.110;5.592;2023-12-29T08:32:05;16.58;;;2.60;;
62861;SDS011;48953;53.110;5.592;2023-12-29T08:34:31;17.42;;;2.53;;
62861;SDS011;48953;53.110;5.592;2023-12-29T08:36:59;17.50;;;3.20;;
62861;SDS011;48953;53.110;5.592;2023-12-29T08:39:25;17.13;;;3.13;;
62861;SDS011;48953;53.110;5.592;2023-12-29T08:41:51;18.20;;;2.72;;
62861;SDS011;48953;53.110;5.592;2023-12-29T08:44:17;14.05;;;2.15;;
62861;SDS011;48953;53.110;5.592;2023-12-29T08:46:43;27.73;;;3.17;;
62861;SDS011;48953;53.110;5.592;2023-12-29T08:49:09;22.08;;;3.53;;
62861;SDS011;48953;53.110;5.592;2023-12-29T08:51:35;22.42;;;2.80;;
62861;SDS011;48953;53.110;5.592;2023-12-29T08:54:01;16.73;;;2.78;;
62861;SDS011;48953;53.110;5.592;2023-12-29T08:56:27;25.70;;;2.63;;
62861;SDS011;48953;53.110;5.592;2023-12-29T08:58:54;22.65;;;2.97;;
62861;SDS011;48953;53.110;5.592;2023-12-29T09:01:20;22.67;;;3.53;;
62861;SDS011;48953;53.110;5.592;2023-12-29T09:03:46;24.77;;;2.72;;
62861;SDS011;48953;53.110;5.592;2023-12-29T09:06:12;21.00;;;2.97;;
62861;SDS011;48953;53.110;5.592;2023-12-29T09:08:39;24.42;;;4.03;;
62861;SDS011;48953;53.110;5.592;2023-12-29T09:11:05;20.48;;;2.53;;
62861;SDS011;48953;53.110;5.592;2023-12-29T09:13:31;23.25;;;3.13;;
62861;SDS011;48953;53.110;5.592;2023-12-29T09:15:58;18.10;;;2.85;;
62861;SDS011;48953;53.110;5.592;2023-12-29T09:18:24;19.80;;;2.53;;
62861;SDS011;48953;53.110;5.592;2023-12-29T09:20:50;15.75;;;2.85;;
62861;SDS011;48953;53.110;5.592;2023-12-29T09:23:16;17.30;;;2.67;;
62861;SDS011;48953;53.110;5.592;2023-12-29T09:25:42;18.27;;;2.63;;
62861;SDS011;48953;53.110;5.592;2023-12-29T09:28:08;20.13;;;2.33;;
62861;SDS011;48953;53.110;5.592;2023-12-29T09:30:34;19.90;;;2.97;;
62861;SDS011;48953;53.110;5.592;2023-12-29T09:33:00;21.30;;;2.75;;
62861;SDS011;48953;53.110;5.592;2023-12-29T09:35:26;15.60;;;2.65;;
62861;SDS011;48953;53.110;5.592;2023-12-29T09:37:53;16.65;;;2.83;;
62861;SDS011;48953;53.110;5.592;2023-12-29T09:40:19;19.20;;;3.05;;
62861;SDS011;48953;53.110;5.592;2023-12-29T09:42:45;18.27;;;2.55;;
62861;SDS011;48953;53.110;5.592;2023-12-29T09:45:12;13.80;;;2.65;;
62861;SDS011;48953;53.110;5.592;2023-12-29T09:47:39;21.38;;;2.58;;
62861;SDS011;48953;53.110;5.592;2023-12-29T09:50:12;13.75;;;2.13;;
62861;SDS011;48953;53.110;5.592;2023-12-29T09:52:39;16.88;;;3.47;;
62861;SDS011;48953;53.110;5.592;2023-12-29T09:55:08;17.10;;;2.35;;
62861;SDS011;48953;53.110;5.592;2023-12-29T09:57:36;17.17;;;2.75;;
62861;SDS011;48953;53.110;5.592;2023-12-29T10:00:02;16.13;;;2.22;;
62861;SDS011;48953;53.110;5.592;2023-12-29T10:02:29;16.27;;;3.00;;
62861;SDS011;48953;53.110;5.592;2023-12-29T10:04:55;9.45;;;1.70;;
62861;SDS011;48953;53.110;5.592;2023-12-29T10:07:25;13.60;;;1.80;;
62861;SDS011;48953;53.110;5.592;2023-12-29T10:09:57;17.90;;;3.30;;
62861;SDS011;48953;53.110;5.592;2023-12-29T10:12:24;17.33;;;2.08;;
62861;SDS011;48953;53.110;5.592;2023-12-29T10:20:06;14.70;;;2.35;;
62861;SDS011;48953;53.110;5.592;2023-12-29T10:25:01;14.52;;;1.75;;
62861;SDS011;48953;53.110;5.592;2023-12-29T10:27:27;13.10;;;1.48;;
62861;SDS011;48953;53.110;5.592;2023-12-29T10:29:53;14.63;;;1.60;;
62861;SDS011;48953;53.110;5.592;2023-12-29T10:32:20;17.35;;;2.42;;
62861;SDS011;48953;53.110;5.592;2023-12-29T10:34:46;13.60;;;1.60;;
62861;SDS011;48953;53.110;5.592;2023-12-29T10:37:13;8.90;;;1.40;;
62861;SDS011;48953;53.110;5.592;2023-12-29T10:39:57;16.95;;;1.85;;
62861;SDS011;48953;53.110;5.592;2023-12-29T10:42:23;10.98;;;1.95;;
62861;SDS011;48953;53.110;5.592;2023-12-29T10:44:49;19.30;;;2.20;;
62861;SDS011;48953;53.110;5.592;2023-12-29T10:47:29;16.60;;;2.65;;
62861;SDS011;48953;53.110;5.592;2023-12-29T10:49:58;19.13;;;2.70;;
62861;SDS011;48953;53.110;5.592;2023-12-29T10:52:25;16.40;;;2.80;;
62861;SDS011;48953;53.110;5.592;2023-12-29T10:54:54;17.17;;;1.95;;
62861;SDS011;48953;53.110;5.592;2023-12-29T10:57:29;19.10;;;2.72;;
62861;SDS011;48953;53.110;5.592;2023-12-29T10:59:55;12.77;;;1.70;;
62861;SDS011;48953;53.110;5.592;2023-12-29T11:02:21;11.27;;;1.98;;
62861;SDS011;48953;53.110;5.592;2023-12-29T11:04:47;12.18;;;2.65;;
62861;SDS011;48953;53.110;5.592;2023-12-29T11:07:15;13.82;;;2.22;;
62861;SDS011;48953;53.110;5.592;2023-12-29T11:09:41;15.27;;;2.40;;
62861;SDS011;48953;53.110;5.592;2023-12-29T11:12:07;9.23;;;1.80;;
62861;SDS011;48953;53.110;5.592;2023-12-29T11:14:35;11.15;;;1.95;;
62861;SDS011;48953;53.110;5.592;2023-12-29T11:17:01;11.57;;;2.20;;
62861;SDS011;48953;53.110;5.592;2023-12-29T11:19:29;13.82;;;1.92;;
62861;SDS011;48953;53.110;5.592;2023-12-29T11:21:55;15.40;;;2.13;;
62861;SDS011;48953;53.110;5.592;2023-12-29T11:24:22;18.67;;;2.08;;
62861;SDS011;48953;53.110;5.592;2023-12-29T11:26:51;15.00;;;2.03;;
62861;SDS011;48953;53.110;5.592;2023-12-29T11:29:18;16.33;;;1.88;;
62861;SDS011;48953;53.110;5.592;2023-12-29T11:31:45;12.48;;;1.65;;
62861;SDS011;48953;53.110;5.592;2023-12-29T11:36:40;23.25;;;2.83;;
62861;SDS011;48953;53.110;5.592;2023-12-29T11:44:09;14.48;;;2.30;;
62861;SDS011;48953;53.110;5.592;2023-12-29T11:46:38;12.25;;;2.45;;
62861;SDS011;48953;53.110;5.592;2023-12-29T11:49:08;18.33;;;2.10;;
62861;SDS011;48953;53.110;5.592;2023-12-29T11:51:44;17.58;;;3.60;;
62861;SDS011;48953;53.110;5.592;2023-12-29T11:54:26;15.15;;;2.60;;
62861;SDS011;48953;53.110;5.592;2023-12-29T11:56:53;11.93;;;1.75;;
62861;SDS011;48953;53.110;5.592;2023-12-29T11:59:20;15.18;;;1.73;;
62861;SDS011;48953;53.110;5.592;2023-12-29T12:01:50;17.13;;;2.17;;
62861;SDS011;48953;53.110;5.592;2023-12-29T12:07:12;11.73;;;2.55;;
62861;SDS011;48953;53.110;5.592;2023-12-29T12:09:39;13.23;;;1.83;;
62861;SDS011;48953;53.110;5.592;2023-12-29T12:12:05;11.02;;;1.52;;
62861;SDS011;48953;53.110;5.592;2023-12-29T12:17:28;16.95;;;2.30;;
62861;SDS011;48953;53.110;5.592;2023-12-29T12:19:58;16.65;;;2.60;;
62861;SDS011;48953;53.110;5.592;2023-12-29T12:22:24;16.95;;;2.10;;
62861;SDS011;48953;53.110;5.592;2023-12-29T12:24:57;14.68;;;2.40;;
62861;SDS011;48953;53.110;5.592;2023-12-29T12:27:24;15.40;;;2.35;;
62861;SDS011;48953;53.110;5.592;2023-12-29T12:29:54;15.02;;;2.25;;
62861;SDS011;48953;53.110;5.592;2023-12-29T12:32:22;15.57;;;2.97;;
62861;SDS011;48953;53.110;5.592;2023-12-29T12:34:48;18.35;;;2.75;;
62861;SDS011;48953;53.110;5.592;2023-12-29T12:37:18;13.68;;;2.58;;
62861;SDS011;48953;53.110;5.592;2023-12-29T12:39:44;16.40;;;2.53;;
62861;SDS011;48953;53.110;5.592;2023-12-29T12:42:10;15.25;;;2.17;;
62861;SDS011;48953;53.110;5.592;2023-12-29T12:44:40;19.08;;;2.60;;
62861;SDS011;48953;53.110;5.592;2023-12-29T12:47:08;15.57;;;2.35;;
62861;SDS011;48953;53.110;5.592;2023-12-29T12:49:35;15.20;;;2.65;;
62861;SDS011;48953;53.110;5.592;2023-12-29T12:52:01;9.80;;;2.00;;
62861;SDS011;48953;53.110;5.592;2023-12-29T12:54:27;10.70;;;1.85;;
62861;SDS011;48953;53.110;5.592;2023-12-29T12:56:54;14.68;;;2.10;;
62861;SDS011;48953;53.110;5.592;2023-12-29T12:59:20;16.75;;;2.63;;
62861;SDS011;48953;53.110;5.592;2023-12-29T13:01:46;12.90;;;1.98;;
62861;SDS011;48953;53.110;5.592;2023-12-29T13:04:13;14.65;;;2.38;;
62861;SDS011;48953;53.110;5.592;2023-12-29T13:06:39;9.70;;;2.20;;
62861;SDS011;48953;53.110;5.592;2023-12-29T13:09:06;11.80;;;2.25;;
62861;SDS011;48953;53.110;5.592;2023-12-29T13:11:42;10.07;;;1.90;;
62861;SDS011;48953;53.110;5.592;2023-12-29T13:14:08;11.25;;;2.10;;
62861;SDS011;48953;53.110;5.592;2023-12-29T13:16:35;17.02;;;2.03;;
62861;SDS011;48953;53.110;5.592;2023-12-29T13:21:53;7.78;;;1.60;;
62861;SDS011;48953;53.110;5.592;2023-12-29T13:24:20;16.42;;;1.95;;
62861;SDS011;48953;53.110;5.592;2023-12-29T13:26:47;9.45;;;1.70;;
62861;SDS011;48953;53.110;5.592;2023-12-29T13:29:17;13.65;;;1.80;;
62861;SDS011;48953;53.110;5.592;2023-12-29T13:31:43;13.93;;;2.10;;
62861;SDS011;48953;53.110;5.592;2023-12-29T13:34:15;16.40;;;1.33;;
62861;SDS011;48953;53.110;5.592;2023-12-29T13:36:53;18.52;;;2.50;;
62861;SDS011;48953;53.110;5.592;2023-12-29T13:41:46;16.77;;;2.35;;
62861;SDS011;48953;53.110;5.592;2023-12-29T13:44:12;10.45;;;1.63;;
62861;SDS011;48953;53.110;5.592;2023-12-29T13:46:39;12.93;;;2.30;;
62861;SDS011;48953;53.110;5.592;2023-12-29T13:49:05;12.38;;;2.00;;
62861;SDS011;48953;53.110;5.592;2023-12-29T13:51:31;15.05;;;1.88;;
62861;SDS011;48953;53.110;5.592;2023-12-29T13:54:01;17.48;;;2.95;;
62861;SDS011;48953;53.110;5.592;2023-12-29T13:56:28;7.93;;;1.45;;
62861;SDS011;48953;53.110;5.592;2023-12-29T13:58:55;13.40;;;2.67;;
62861;SDS011;48953;53.110;5.592;2023-12-29T14:01:21;13.57;;;1.98;;
62861;SDS011;48953;53.110;5.592;2023-12-29T14:03:51;15.25;;;2.85;;
62861;SDS011;48953;53.110;5.592;2023-12-29T14:06:21;13.50;;;1.63;;
62861;SDS011;48953;53.110;5.592;2023-12-29T14:08:48;12.75;;;2.25;;
62861;SDS011;48953;53.110;5.592;2023-12-29T14:11:14;19.17;;;3.47;;
62861;SDS011;48953;53.110;5.592;2023-12-29T14:13:43;14.18;;;2.33;;
62861;SDS011;48953;53.110;5.592;2023-12-29T14:16:09;17.02;;;2.50;;
62861;SDS011;48953;53.110;5.592;2023-12-29T14:24:01;16.63;;;2.25;;
62861;SDS011;48953;53.110;5.592;2023-12-29T14:26:29;13.18;;;2.15;;
62861;SDS011;48953;53.110;5.592;2023-12-29T14:29:07;9.82;;;2.13;;
62861;SDS011;48953;53.110;5.592;2023-12-29T14:31:43;9.48;;;1.63;;
62861;SDS011;48953;53.110;5.592;2023-12-29T14:34:10;12.32;;;2.00;;
62861;SDS011;48953;53.110;5.592;2023-12-29T14:36:37;12.23;;;1.95;;
62861;SDS011;48953;53.110;5.592;2023-12-29T14:39:03;10.77;;;1.92;;
62861;SDS011;48953;53.110;5.592;2023-12-29T14:41:30;14.77;;;3.22;;
62861;SDS011;48953;53.110;5.592;2023-12-29T14:43:56;12.80;;;1.85;;
62861;SDS011;48953;53.110;5.592;2023-12-29T14:46:22;12.73;;;2.47;;
62861;SDS011;48953;53.110;5.592;2023-12-29T14:48:48;11.48;;;1.75;;
62861;SDS011;48953;53.110;5.592;2023-12-29T14:51:15;14.20;;;2.83;;
62861;SDS011;48953;53.110;5.592;2023-12-29T14:53:44;12.63;;;1.95;;
62861;SDS011;48953;53.110;5.592;2023-12-29T14:56:10;15.13;;;2.63;;
62861;SDS011;48953;53.110;5.592;2023-12-29T14:58:36;12.00;;;2.22;;
62861;SDS011;48953;53.110;5.592;2023-12-29T15:01:03;9.40;;;2.30;;
62861;SDS011;48953;53.110;5.592;2023-12-29T15:03:29;15.48;;;2.03;;
62861;SDS011;48953;53.110;5.592;2023-12-29T15:05:56;13.57;;;3.13;;